Crab Orchard, Kentucky
Current Conditions -  °F | °C
As of 7:15 AM on Saturday 20 Dec 2014 (Local Time) from KI39 Reporting Station
Overcast Overcast  
Wind Chill: 28°   Ceiling: 8000
Heat Index: 28°   Visibility: 10mi
Dew Point: 23°   Wind: 3mph
Humidity: 80%   Direction: 20°NNE
Pressure: 30.25"   Gusts: NA
Location:  37.46°N, 84.51°W
Report Text: KI39 201215Z AUTO 02003KT 10SM OVC080 M02/M05 A3025 RMK AO2
Loading
Personal Weather Stations






























Interactive Weather Map New forecast layout! Learn more

10-Day Weather Forecast

Advertisements
Track Severe Weather on mobile